Time;durP1;ratioP1;P1;durP2;ratioP2;P2;SDS_P1;SDS_P2;PMS_P1;PMS_P2;Temp;Humidity;BMP_temperature;BMP_pressure;BME280_temperature;BME280_humidity;BME280_pressure;Samples;Min_cycle;Max_cycle;Signal;HPM_P1;HPM_P2
2022/07/18 00:02:56;;;;;;;4.22;1.50;;;;;;;17.07;44.37;100744.97;10398840;28;20128;-80
2022/07/18 00:08:01;;;;;;;5.00;1.70;;;;;;;16.99;44.67;100745.53;10397145;28;20474;-81
2022/07/18 00:13:03;;;;;;;5.53;1.35;;;;;;;16.92;44.63;100744.28;10396738;28;20545;-80
2022/07/18 00:18:05;;;;;;;5.13;1.58;;;;;;;16.77;45.17;100742.78;10397146;28;20063;-81
2022/07/18 00:23:07;;;;;;;4.10;1.40;;;;;;;16.59;45.40;100747.56;10397646;28;20053;-81
2022/07/18 00:28:11;;;;;;;3.45;1.50;;;;;;;16.59;45.80;100749.38;10394016;28;20565;-81
2022/07/18 00:33:14;;;;;;;4.63;1.60;;;;;;;16.57;46.00;100748.66;10395688;28;20053;-81
2022/07/18 00:38:16;;;;;;;3.55;1.60;;;;;;;16.52;46.02;100741.06;10393090;28;20100;-81
2022/07/18 00:43:18;;;;;;;4.25;1.60;;;;;;;16.46;46.27;100736.22;10398135;28;20470;-80
2022/07/18 00:48:23;;;;;;;5.18;1.60;;;;;;;16.42;46.24;100736.50;10389688;28;20065;-80
2022/07/18 00:53:25;;;;;;;5.18;1.50;;;;;;;16.31;46.45;100736.41;10395763;28;20261;-80
2022/07/18 00:58:27;;;;;;;3.95;1.58;;;;;;;16.19;46.74;100736.31;10395769;28;20099;-80
2022/07/18 01:03:55;;;;;;;4.95;1.50;;;;;;;15.89;47.92;100746.38;10397514;28;20049;-81
2022/07/18 01:08:57;;;;;;;2.83;1.60;;;;;;;15.97;47.41;100749.34;10395141;28;20107;-81
2022/07/18 01:14:02;;;;;;;5.68;1.70;;;;;;;15.95;47.15;100748.59;10397356;28;20120;-80
2022/07/18 01:19:04;;;;;;;2.83;1.50;;;;;;;15.84;47.61;100751.13;10394753;28;20153;-80
2022/07/18 01:24:06;;;;;;;4.88;1.58;;;;;;;15.87;47.49;100742.16;10392157;28;20115;-81
2022/07/18 01:29:08;;;;;;;3.53;1.55;;;;;;;15.80;47.60;100741.72;10395421;28;20510;-80
2022/07/18 01:34:09;;;;;;;4.50;1.50;;;;;;;15.75;48.03;100745.63;10395774;28;20111;-80
2022/07/18 01:39:11;;;;;;;3.80;1.58;;;;;;;15.67;48.19;100746.16;10394440;28;20057;-80
2022/07/18 01:44:13;;;;;;;2.92;1.50;;;;;;;15.58;48.63;100749.41;10394794;28;20768;-81
2022/07/18 01:49:14;;;;;;;5.85;1.70;;;;;;;15.50;48.81;100749.06;10403675;28;20061;-81
2022/07/18 01:54:21;;;;;;;3.42;1.50;;;;;;;15.55;48.61;100743.50;10394065;28;20442;-80
2022/07/18 01:59:23;;;;;;;5.38;1.60;;;;;;;15.51;48.95;100742.84;10392378;28;20577;-80
2022/07/18 02:05:08;;;;;;;4.22;1.58;;;;;;;15.36;48.94;100734.16;10391381;28;20049;-80
2022/07/18 02:09:50;;;;;;;4.40;1.50;;;;;;;15.28;49.25;100731.19;10395492;28;20103;-80
2022/07/18 02:14:52;;;;;;;8.10;1.40;;;;;;;15.28;49.54;100722.44;10398054;28;20057;-80
2022/07/18 02:19:54;;;;;;;4.68;1.50;;;;;;;15.19;49.68;100721.25;10396878;28;20510;-80
2022/07/18 02:24:55;;;;;;;3.05;1.48;;;;;;;15.13;49.67;100720.81;10396049;28;20462;-80
2022/07/18 02:29:57;;;;;;;4.85;1.38;;;;;;;15.03;50.08;100725.84;10397880;28;20045;-80
2022/07/18 02:34:59;;;;;;;4.82;1.65;;;;;;;14.88;50.39;100729.47;10399604;28;20529;-80
2022/07/18 02:40:01;;;;;;;6.22;1.80;;;;;;;14.83;50.40;100734.19;10398062;28;20172;-80
2022/07/18 02:45:21;;;;;;;4.03;1.65;;;;;;;14.77;50.86;100720.59;10398655;28;20060;-80
2022/07/18 02:50:23;;;;;;;3.83;1.65;;;;;;;14.63;50.71;100721.47;10398502;28;20099;-80
2022/07/18 02:55:25;;;;;;;3.08;1.63;;;;;;;14.58;51.08;100734.94;10399778;28;20057;-80
2022/07/18 03:00:27;;;;;;;3.58;1.58;;;;;;;14.52;51.37;100735.31;10397316;28;20083;-80
2022/07/18 03:05:28;;;;;;;3.40;1.58;;;;;;;14.47;51.29;100734.72;10388544;28;20119;-80
2022/07/18 03:10:30;;;;;;;3.03;1.60;;;;;;;14.15;52.21;100732.41;10392303;28;20465;-80
2022/07/18 03:15:32;;;;;;;3.60;1.60;;;;;;;13.86;52.92;100735.97;10395645;28;20103;-80
2022/07/18 03:20:34;;;;;;;3.42;1.77;;;;;;;13.83;53.07;100742.25;10393448;28;20053;-80
2022/07/18 03:25:36;;;;;;;3.72;1.70;;;;;;;14.02;52.70;100742.00;10401448;28;20057;-80
2022/07/18 03:30:37;;;;;;;4.05;1.67;;;;;;;14.10;52.67;100731.84;10399085;28;20497;-80
2022/07/18 03:35:39;;;;;;;4.75;1.65;;;;;;;13.78;52.54;100737.28;10391736;28;20057;-80
2022/07/18 03:40:41;;;;;;;5.38;2.05;;;;;;;13.22;54.26;100738.91;10400445;28;20087;-80
2022/07/18 03:45:43;;;;;;;4.20;1.63;;;;;;;13.33;54.33;100739.13;10399774;28;20057;-80
2022/07/18 03:50:47;;;;;;;1.95;1.33;;;;;;;13.56;54.23;100747.38;10398744;28;20053;-80
2022/07/18 03:55:48;;;;;;;3.28;1.55;;;;;;;13.85;53.55;100740.38;10400111;28;20057;-80
2022/07/18 04:00:50;;;;;;;3.42;1.70;;;;;;;14.05;53.22;100747.06;10397668;28;20099;-80
2022/07/18 04:05:53;;;;;;;5.18;1.80;;;;;;;14.26;52.66;100746.59;10396955;28;20060;-80
2022/07/18 04:10:54;;;;;;;5.10;1.80;;;;;;;14.33;52.40;100750.53;10398749;28;20120;-80
2022/07/18 04:15:56;;;;;;;5.05;1.75;;;;;;;14.49;51.92;100748.66;10399561;28;20068;-80
2022/07/18 04:20:58;;;;;;;4.03;1.67;;;;;;;14.74;51.44;100760.25;10398582;28;20057;-80
2022/07/18 04:26:01;;;;;;;3.67;1.58;;;;;;;15.53;50.66;100745.41;10399474;28;20122;-80
2022/07/18 04:31:03;;;;;;;5.05;1.70;;;;;;;18.01;45.54;100749.22;10395130;28;20049;-80
2022/07/18 04:36:06;;;;;;;2.78;1.33;;;;;;;19.81;41.67;100744.09;10398661;28;20054;-80
2022/07/18 04:41:07;;;;;;;3.97;1.50;;;;;;;21.30;38.62;100734.34;10412914;28;20061;-80
2022/07/18 04:46:09;;;;;;;4.43;1.48;;;;;;;23.09;35.32;100726.81;10396719;28;20053;-80
2022/07/18 04:51:11;;;;;;;3.72;1.77;;;;;;;25.00;32.32;100719.25;10397207;28;20049;-80
2022/07/18 04:56:13;;;;;;;4.07;1.77;;;;;;;26.34;29.87;100711.44;10397046;28;20064;-80
2022/07/18 05:01:15;;;;;;;5.38;1.70;;;;;;;27.11;28.46;100705.97;10387315;28;20058;-80
2022/07/18 05:06:16;;;;;;;2.88;1.45;;;;;;;26.99;28.22;100707.41;10398911;28;20076;-80
2022/07/18 05:11:18;;;;;;;3.05;1.50;;;;;;;27.60;27.18;100711.78;10398119;28;20048;-80
2022/07/18 05:16:20;;;;;;;3.70;1.60;;;;;;;27.57;27.28;100711.31;10396072;28;20053;-80
2022/07/18 05:21:22;;;;;;;2.97;1.65;;;;;;;28.01;26.35;100704.16;10396068;28;20487;-81
2022/07/18 05:26:24;;;;;;;6.47;1.67;;;;;;;28.43;26.06;100703.50;10397465;28;20108;-80
2022/07/18 05:31:25;;;;;;;4.90;1.70;;;;;;;29.06;25.09;100696.38;10390516;28;20065;-80
2022/07/18 05:36:28;;;;;;;3.15;1.50;;;;;;;27.45;26.59;100708.22;10394959;28;20053;-80
2022/07/18 05:41:30;;;;;;;3.45;1.55;;;;;;;24.53;30.09;100718.13;10411284;28;20072;-80
2022/07/18 05:46:32;;;;;;;5.18;1.50;;;;;;;22.88;33.00;100726.28;10385613;28;20103;-80
2022/07/18 05:51:34;;;;;;;3.60;1.52;;;;;;;22.02;34.41;100714.19;10394703;28;21161;-80
2022/07/18 05:56:36;;;;;;;3.45;1.92;;;;;;;21.48;35.51;100708.72;10394140;28;20061;-80
2022/07/18 06:01:37;;;;;;;5.22;1.63;;;;;;;21.00;36.45;100722.88;10395410;28;20427;-80
2022/07/18 06:06:40;;;;;;;4.57;1.67;;;;;;;20.39;37.83;100715.16;10394305;28;20056;-80
2022/07/18 06:11:42;;;;;;;4.93;2.10;;;;;;;20.10;37.08;100723.84;10393716;28;20424;-80
2022/07/18 06:16:44;;;;;;;5.63;2.15;;;;;;;19.88;38.00;100723.19;10395009;28;20049;-80
2022/07/18 06:21:46;;;;;;;4.53;1.92;;;;;;;19.83;38.56;100723.56;10392427;28;20041;-80
2022/07/18 06:26:49;;;;;;;5.05;1.92;;;;;;;19.87;38.23;100721.50;10395432;28;20135;-80
2022/07/18 06:31:51;;;;;;;5.43;1.90;;;;;;;20.01;38.31;100705.25;10392764;28;20049;-80
2022/07/18 06:36:53;;;;;;;7.20;2.03;;;;;;;19.83;38.35;100707.66;10391214;28;21464;-80
2022/07/18 06:41:54;;;;;;;5.72;1.85;;;;;;;20.15;38.13;100702.22;10410609;28;20084;-80
2022/07/18 06:46:59;;;;;;;6.50;1.85;;;;;;;20.44;36.81;100702.31;10393769;28;20506;-80
2022/07/18 06:52:00;;;;;;;5.22;1.60;;;;;;;20.19;36.69;100693.00;10398121;28;20072;-80
2022/07/18 06:57:07;;;;;;;5.13;1.80;;;;;;;20.38;36.21;100689.56;10393054;28;20447;-80
2022/07/18 07:02:09;;;;;;;6.40;1.85;;;;;;;20.32;35.44;100682.97;10397007;28;20053;-80
2022/07/18 07:07:11;;;;;;;6.68;2.10;;;;;;;20.58;35.08;100686.81;10398009;28;20050;-80
2022/07/18 07:12:13;;;;;;;7.68;1.80;;;;;;;20.93;34.78;100694.28;10400141;28;20045;-80
2022/07/18 07:17:15;;;;;;;11.13;1.90;;;;;;;21.01;34.34;100694.44;10393140;28;20089;-79
2022/07/18 07:22:17;;;;;;;6.28;1.70;;;;;;;21.34;33.69;100690.53;10394576;28;21008;-80
2022/07/18 07:27:25;;;;;;;7.32;1.70;;;;;;;21.67;33.24;100682.91;10394657;28;20096;-79
2022/07/18 07:32:34;;;;;;;5.43;2.03;;;;;;;22.12;32.52;100682.22;10390180;28;20065;-79
2022/07/18 07:37:53;;;;;;;8.17;2.10;;;;;;;22.97;30.88;100674.66;10398445;28;20061;-83
2022/07/18 07:43:12;;;;;;;10.93;2.00;;;;;;;24.05;29.35;100666.09;10400044;28;20049;-84
2022/07/18 07:48:15;;;;;;;6.20;1.63;;;;;;;25.10;28.30;100651.19;10399167;28;20114;-81
2022/07/18 07:53:20;;;;;;;5.30;2.10;;;;;;;26.19;27.21;100643.44;10392308;28;20057;-82
2022/07/18 07:58:23;;;;;;;5.50;1.92;;;;;;;27.69;25.05;100624.66;10398982;28;20123;-79
2022/07/18 08:03:25;;;;;;;8.55;2.47;;;;;;;28.02;25.09;100628.69;10399947;28;20091;-78
2022/07/18 08:08:27;;;;;;;5.55;1.75;;;;;;;28.80;23.68;100620.69;10397488;28;20064;-79
2022/07/18 08:13:30;;;;;;;5.53;1.80;;;;;;;29.07;22.93;100613.72;10396468;28;20049;-78
2022/07/18 08:18:32;;;;;;;6.65;1.80;;;;;;;28.98;22.67;100607.63;10364760;28;20081;-78
2022/07/18 08:23:35;;;;;;;5.18;1.70;;;;;;;29.31;21.84;100607.06;10335178;28;20057;-79
2022/07/18 08:28:37;;;;;;;5.70;1.92;;;;;;;29.02;21.86;100605.38;10335501;28;20046;-79
2022/07/18 08:33:39;;;;;;;7.22;1.65;;;;;;;29.04;21.88;100606.00;10337255;28;20042;-79
2022/07/18 08:38:44;;;;;;;4.63;1.88;;;;;;;29.38;21.89;100597.97;10335360;28;20096;-79
2022/07/18 08:43:46;;;;;;;10.43;1.90;;;;;;;29.99;21.34;100595.50;10337347;28;20050;-79
2022/07/18 08:48:49;;;;;;;5.82;1.45;;;;;;;29.65;21.51;100591.75;10338023;28;20054;-79
2022/07/18 08:53:52;;;;;;;12.82;1.95;;;;;;;29.90;21.11;100581.31;10335075;28;20050;-79
2022/07/18 08:58:54;;;;;;;11.52;1.90;;;;;;;30.21;21.10;100580.81;10333615;28;20141;-79
2022/07/18 09:04:14;;;;;;;9.43;1.98;;;;;;;30.52;20.64;100581.97;10330069;28;20054;-79
2022/07/18 09:09:18;;;;;;;6.07;1.70;;;;;;;30.85;20.02;100570.34;10333506;28;20050;-78
2022/07/18 09:14:42;;;;;;;5.38;1.70;;;;;;;31.18;19.55;100571.19;10332143;28;20053;-78
2022/07/18 09:20:04;;;;;;;7.50;2.00;;;;;;;31.43;19.54;100574.91;10345550;28;20448;-78
2022/07/18 09:25:12;;;;;;;7.55;1.90;;;;;;;31.29;19.75;100571.38;10330725;28;20069;-79
2022/07/18 09:30:28;;;;;;;6.13;1.60;;;;;;;31.01;19.68;100569.97;10337807;28;20128;-79
2022/07/18 09:35:42;;;;;;;4.38;1.60;;;;;;;31.17;18.69;100564.16;10332043;28;20096;-79
2022/07/18 09:40:49;;;;;;;3.20;1.63;;;;;;;31.38;19.21;100564.72;10327806;28;20104;-79
2022/07/18 09:46:04;;;;;;;4.90;1.58;;;;;;;31.84;17.84;100548.38;10335946;28;20057;-79
2022/07/18 09:51:10;;;;;;;7.13;1.83;;;;;;;31.80;18.67;100541.72;10329282;28;20058;-79
2022/07/18 09:56:25;;;;;;;6.72;1.83;;;;;;;32.09;18.07;100540.38;10333236;28;20116;-79
2022/07/18 10:01:36;;;;;;;5.60;1.77;;;;;;;32.10;17.18;100540.19;10330898;28;20539;-79
2022/07/18 10:06:45;;;;;;;6.55;1.60;;;;;;;32.08;17.23;100541.44;10331833;28;20053;-79
2022/07/18 10:11:48;;;;;;;7.93;1.60;;;;;;;32.57;16.81;100533.44;10332361;28;20542;-79
2022/07/18 10:16:51;;;;;;;4.68;1.60;;;;;;;32.73;16.73;100532.06;10331095;28;20050;-79
2022/07/18 10:21:56;;;;;;;5.43;1.50;;;;;;;32.09;16.58;100527.69;10347639;28;20054;-79
2022/07/18 10:27:17;;;;;;;4.82;1.70;;;;;;;32.25;16.64;100526.31;10333501;28;20058;-79
2022/07/18 10:32:32;;;;;;;5.72;1.73;;;;;;;32.36;16.81;100508.56;10345708;28;20515;-79
2022/07/18 10:37:35;;;;;;;7.05;1.70;;;;;;;32.77;16.43;100512.44;10334648;28;20906;-80
2022/07/18 10:42:39;;;;;;;4.85;1.55;;;;;;;32.85;16.42;100505.91;10345496;28;20486;-79
2022/07/18 10:47:41;;;;;;;4.28;1.55;;;;;;;32.77;16.28;100504.31;10347586;28;20822;-79
2022/07/18 10:52:42;;;;;;;4.45;1.38;;;;;;;32.41;16.60;100500.63;10323096;28;20046;-78
2022/07/18 10:57:50;;;;;;;4.72;1.58;;;;;;;32.34;16.50;100497.94;10347251;28;20050;-78
2022/07/18 11:03:11;;;;;;;6.25;1.60;;;;;;;31.64;16.81;100488.13;10329665;28;20053;-78
2022/07/18 11:08:13;;;;;;;4.47;1.60;;;;;;;31.65;17.07;100483.56;10327154;28;20054;-78
2022/07/18 11:13:28;;;;;;;4.93;1.50;;;;;;;31.81;16.83;100485.75;10328634;28;20054;-78
2022/07/18 11:18:43;;;;;;;7.00;1.70;;;;;;;31.90;17.04;100484.47;10346278;28;20120;-78
2022/07/18 11:23:51;;;;;;;4.63;1.50;;;;;;;31.63;16.96;100475.66;10338817;28;20049;-79
2022/07/18 11:29:05;;;;;;;4.65;1.40;;;;;;;31.78;16.87;100464.56;10346006;28;20405;-80
2022/07/18 11:34:12;;;;;;;7.32;1.92;;;;;;;31.71;16.83;100470.00;10343291;28;20046;-80
2022/07/18 11:39:28;;;;;;;7.38;1.85;;;;;;;31.46;17.17;100458.22;10335674;28;20431;-80
2022/07/18 11:44:31;;;;;;;6.63;1.52;;;;;;;31.40;16.89;100453.66;10347397;28;20050;-80
2022/07/18 11:49:35;;;;;;;7.50;1.40;;;;;;;31.75;17.05;100444.19;10335557;28;20113;-79
2022/07/18 11:54:42;;;;;;;6.38;1.60;;;;;;;32.17;16.42;100445.38;10337910;28;20109;-80
2022/07/18 11:59:44;;;;;;;5.15;1.60;;;;;;;31.79;16.09;100440.00;10333985;28;20105;-79
2022/07/18 12:04:47;;;;;;;3.42;1.50;;;;;;;31.78;16.07;100438.31;10328654;28;20049;-79
2022/07/18 12:09:50;;;;;;;6.97;1.83;;;;;;;31.84;16.15;100423.94;10336130;28;20058;-79
2022/07/18 12:14:58;;;;;;;8.55;1.50;;;;;;;32.22;15.64;100434.75;10334931;28;20074;-79
2022/07/18 12:20:18;;;;;;;4.90;1.48;;;;;;;32.28;14.85;100425.75;10334494;28;20074;-79
2022/07/18 12:25:21;;;;;;;4.25;1.40;;;;;;;32.00;15.74;100420.75;10333789;28;20050;-78
2022/07/18 12:30:24;;;;;;;4.60;1.58;;;;;;;32.48;15.11;100414.72;10330898;28;20458;-79
2022/07/18 12:35:27;;;;;;;4.32;1.50;;;;;;;32.54;15.10;100417.41;10338185;28;20082;-79
2022/07/18 12:40:53;;;;;;;2.65;1.40;;;;;;;32.52;14.69;100415.97;10337636;28;20061;-79
2022/07/18 12:45:59;;;;;;;5.75;1.60;;;;;;;32.89;14.75;100404.13;10332708;28;20058;-79
2022/07/18 12:51:05;;;;;;;3.83;1.40;;;;;;;32.93;15.10;100398.06;10335981;28;20998;-79
2022/07/18 12:56:09;;;;;;;5.43;1.58;;;;;;;33.02;15.75;100395.91;10336499;28;20072;-78
2022/07/18 13:01:11;;;;;;;4.70;1.60;;;;;;;32.97;15.21;100391.16;10331965;28;20070;-78
2022/07/18 13:06:14;;;;;;;4.57;1.30;;;;;;;33.03;15.49;100382.13;10334129;28;20089;-78
2022/07/18 13:11:25;;;;;;;3.87;1.60;;;;;;;32.94;15.30;100379.91;10333319;28;20049;-79
2022/07/18 13:16:32;;;;;;;6.45;1.40;;;;;;;33.06;14.89;100375.44;10328579;28;20070;-79
2022/07/18 13:21:37;;;;;;;4.80;1.40;;;;;;;33.31;14.85;100365.28;10334566;28;20133;-80
2022/07/18 13:26:45;;;;;;;6.53;1.50;;;;;;;33.24;14.81;100361.84;10334661;28;20104;-79
2022/07/18 13:31:50;;;;;;;;;;;;;;;32.79;15.47;100365.91;10331241;28;20424;-78
2022/07/18 13:36:56;;;;;;;3.10;1.50;;;;;;;33.15;14.84;100354.22;10332181;28;19977;-79
2022/07/18 13:42:02;;;;;;;6.35;1.73;;;;;;;33.31;15.40;100351.72;10346661;28;20046;-79
2022/07/18 13:47:06;;;;;;;3.30;1.50;;;;;;;33.60;14.64;100344.66;10328755;28;20065;-79
2022/07/18 13:52:08;;;;;;;4.30;1.60;;;;;;;33.47;14.61;100345.69;10329174;28;20519;-78
2022/07/18 13:57:11;;;;;;;5.70;1.70;;;;;;;33.55;14.89;100333.72;10329864;28;20054;-78
2022/07/18 14:02:13;;;;;;;4.93;1.63;;;;;;;33.60;14.87;100337.38;10338629;28;20053;-77
2022/07/18 14:07:18;;;;;;;4.75;1.60;;;;;;;33.62;14.93;100329.81;10347668;28;20050;-80
2022/07/18 14:12:21;;;;;;;4.60;1.60;;;;;;;33.79;14.16;100325.41;10331359;28;20137;-80
2022/07/18 14:17:23;;;;;;;6.45;1.88;;;;;;;33.81;14.49;100317.00;10335030;28;20065;-79
2022/07/18 14:22:25;;;;;;;3.85;1.52;;;;;;;33.82;14.24;100318.66;10331727;28;20054;-79
2022/07/18 14:27:27;;;;;;;7.13;1.65;;;;;;;33.89;14.70;100313.13;10329899;28;20050;-80
2022/07/18 14:32:30;;;;;;;5.43;1.60;;;;;;;33.84;14.45;100305.69;10347875;28;20111;-80
2022/07/18 14:37:36;;;;;;;8.48;1.92;;;;;;;33.83;14.54;100299.44;10332166;28;20082;-80
2022/07/18 14:42:39;;;;;;;6.22;2.03;;;;;;;33.96;14.55;100295.69;10332385;28;20060;-80
2022/07/18 14:47:42;;;;;;;5.00;1.50;;;;;;;33.94;14.55;100303.25;10328476;28;20405;-80
2022/07/18 14:52:44;;;;;;;4.53;1.52;;;;;;;33.96;14.67;100295.69;10346582;28;20058;-80
2022/07/18 14:57:46;;;;;;;4.70;1.70;;;;;;;34.08;14.41;100293.00;10328517;28;20062;-80
2022/07/18 15:02:56;;;;;;;4.35;1.73;;;;;;;34.03;14.68;100292.88;10345710;28;20053;-80
2022/07/18 15:08:03;;;;;;;5.15;1.70;;;;;;;33.93;14.17;100289.88;10348080;28;20066;-79
2022/07/18 15:13:06;;;;;;;5.80;1.50;;;;;;;33.60;14.43;100293.97;10331078;28;20150;-80
2022/07/18 15:18:09;;;;;;;6.45;1.67;;;;;;;33.57;14.64;100289.00;10350399;28;20081;-79
2022/07/18 15:23:13;;;;;;;9.32;1.80;;;;;;;33.82;15.17;100292.34;10339760;28;20050;-79
2022/07/18 15:28:17;;;;;;;6.03;2.00;;;;;;;33.91;14.83;100289.28;10353381;28;20061;-79
2022/07/18 15:33:19;;;;;;;4.28;1.55;;;;;;;34.15;14.97;100277.41;10332194;28;20160;-80
2022/07/18 15:38:21;;;;;;;4.28;1.63;;;;;;;33.79;15.05;100281.16;10333504;28;20128;-79
2022/07/18 15:43:23;;;;;;;4.38;1.67;;;;;;;33.84;14.88;100268.53;10335530;28;20046;-79
2022/07/18 15:48:25;;;;;;;6.50;1.65;;;;;;;33.85;15.16;100258.50;10337092;28;20046;-79
2022/07/18 15:53:26;;;;;;;6.13;1.75;;;;;;;33.93;14.95;100260.03;10338522;28;20049;-79
2022/07/18 15:58:29;;;;;;;4.72;2.10;;;;;;;33.91;15.62;100249.41;10335353;28;20065;-79
2022/07/18 16:03:31;;;;;;;6.03;1.60;;;;;;;33.76;15.33;100249.03;10353939;28;20042;-78
2022/07/18 16:08:33;;;;;;;4.53;1.80;;;;;;;33.54;15.35;100239.81;10334805;28;20495;-78
2022/07/18 16:13:35;;;;;;;8.20;2.15;;;;;;;33.81;15.44;100241.03;10331103;28;20058;-79
2022/07/18 16:18:37;;;;;;;6.53;1.70;;;;;;;33.73;15.52;100228.66;10335522;28;20073;-79
2022/07/18 16:23:38;;;;;;;4.35;1.73;;;;;;;33.69;15.34;100227.47;10353434;28;20115;-79
2022/07/18 16:28:40;;;;;;;5.00;1.70;;;;;;;33.82;14.98;100229.94;10334382;28;20058;-79
2022/07/18 16:33:42;;;;;;;5.82;1.70;;;;;;;33.71;15.05;100214.50;10351661;28;20610;-79
2022/07/18 16:38:44;;;;;;;4.18;1.75;;;;;;;33.70;14.91;100218.25;10333971;28;20054;-78
2022/07/18 16:43:46;;;;;;;5.55;1.70;;;;;;;33.70;14.85;100209.28;10337110;28;20058;-79
2022/07/18 16:48:48;;;;;;;5.57;1.60;;;;;;;33.69;15.28;100205.78;10335113;28;20116;-79
2022/07/18 16:53:50;;;;;;;8.77;2.50;;;;;;;33.76;14.84;100197.50;10330723;28;20053;-79
2022/07/18 16:58:56;;;;;;;6.22;1.90;;;;;;;33.70;15.07;100198.44;10334567;28;20141;-79
2022/07/18 17:03:58;;;;;;;6.20;1.60;;;;;;;33.66;14.79;100192.66;10332819;28;20444;-79
2022/07/18 17:09:00;;;;;;;4.65;1.55;;;;;;;33.68;14.67;100187.81;10329580;28;20058;-79
2022/07/18 17:14:03;;;;;;;4.22;1.77;;;;;;;33.59;14.66;100183.00;10333668;28;20093;-79
2022/07/18 17:19:05;;;;;;;7.70;2.40;;;;;;;33.48;15.32;100184.63;10336464;28;20049;-79
2022/07/18 17:24:08;;;;;;;7.95;2.00;;;;;;;33.45;14.87;100182.34;10332378;28;20042;-79
2022/07/18 17:29:10;;;;;;;5.22;1.80;;;;;;;33.42;14.53;100185.53;10332333;28;20080;-79
2022/07/18 17:34:12;;;;;;;4.22;1.98;;;;;;;33.33;14.76;100181.50;10334393;28;20049;-80
2022/07/18 17:39:14;;;;;;;4.13;1.80;;;;;;;33.29;15.14;100188.44;10348440;28;20050;-79
2022/07/18 17:44:18;;;;;;;5.18;1.90;;;;;;;33.11;15.07;100183.13;10343795;28;20495;-79
2022/07/18 17:49:21;;;;;;;7.22;2.00;;;;;;;32.97;15.21;100179.78;10342988;28;20053;-79
2022/07/18 17:54:23;;;;;;;3.78;1.70;;;;;;;32.82;16.20;100187.47;10331201;28;20422;-79
2022/07/18 17:59:25;;;;;;;6.22;2.00;;;;;;;32.74;16.41;100178.81;10332867;28;20145;-79
2022/07/18 18:04:27;;;;;;;8.93;2.17;;;;;;;32.58;16.63;100191.13;10333392;28;20050;-79
2022/07/18 18:09:29;;;;;;;9.30;2.03;;;;;;;32.46;17.11;100187.50;10327770;28;20083;-79
2022/07/18 18:14:31;;;;;;;6.97;1.88;;;;;;;32.27;17.25;100187.75;10327425;28;20104;-81
2022/07/18 18:19:34;;;;;;;7.70;1.83;;;;;;;32.00;17.45;100189.94;10333162;28;20050;-79
2022/07/18 18:24:36;;;;;;;6.97;1.92;;;;;;;31.74;17.37;100190.16;10345369;28;20942;-79
2022/07/18 18:29:38;;;;;;;6.60;2.05;;;;;;;31.29;18.25;100195.69;10328356;28;20069;-79
2022/07/18 18:34:40;;;;;;;7.15;2.22;;;;;;;30.97;19.15;100195.88;10328697;28;20123;-79
2022/07/18 18:39:42;;;;;;;8.65;1.80;;;;;;;30.63;19.54;100192.56;10331238;28;20046;-79
2022/07/18 18:44:43;;;;;;;7.68;1.85;;;;;;;30.29;20.14;100198.28;10330756;28;20061;-79
2022/07/18 18:49:46;;;;;;;16.20;1.90;;;;;;;29.87;20.76;100202.28;10328432;28;20076;-79
2022/07/18 18:54:48;;;;;;;8.77;1.83;;;;;;;29.32;21.84;100201.84;10329965;28;20747;-79
2022/07/18 18:59:50;;;;;;;9.40;2.22;;;;;;;28.92;22.08;100200.97;10331783;28;20408;-79
2022/07/18 19:04:52;;;;;;;7.88;2.08;;;;;;;28.39;22.92;100201.78;10332166;28;20050;-79
2022/07/18 19:09:54;;;;;;;10.43;2.08;;;;;;;27.87;23.15;100202.28;10343124;28;20062;-79
2022/07/18 19:14:56;;;;;;;13.95;2.50;;;;;;;27.60;23.66;100209.28;10329081;28;20132;-79
2022/07/18 19:19:58;;;;;;;8.90;2.00;;;;;;;27.54;23.96;100211.91;10328883;28;20054;-79
2022/07/18 19:24:59;;;;;;;9.45;2.10;;;;;;;27.40;23.82;100206.41;10346340;28;20096;-79
2022/07/18 19:30:01;;;;;;;9.18;2.08;;;;;;;27.29;24.60;100204.25;10330166;28;20151;-79
2022/07/18 19:35:04;;;;;;;10.43;2.17;;;;;;;27.00;25.27;100214.25;10331889;28;20125;-79
2022/07/18 19:40:06;;;;;;;8.40;2.13;;;;;;;26.91;25.84;100216.25;10329228;28;20073;-79
2022/07/18 19:45:08;;;;;;;9.77;2.33;;;;;;;26.55;25.94;100221.56;10331095;28;20534;-79
2022/07/18 19:50:10;;;;;;;6.22;2.45;;;;;;;26.29;26.86;100221.22;10330471;28;20085;-78
2022/07/18 19:55:18;;;;;;;8.77;2.27;;;;;;;26.20;27.43;100230.34;10329987;28;20193;-79
2022/07/18 20:00:21;;;;;;;12.90;2.40;;;;;;;26.11;27.19;100236.00;10348681;28;21025;-79
2022/07/18 20:05:23;;;;;;;9.70;2.15;;;;;;;25.70;27.83;100233.69;10352678;28;20520;-78
2022/07/18 20:10:26;;;;;;;10.75;2.13;;;;;;;25.62;28.90;100235.59;10336806;28;20583;-78
2022/07/18 20:15:29;;;;;;;7.25;2.30;;;;;;;25.18;29.62;100240.78;10339868;28;20054;-79
2022/07/18 20:20:39;;;;;;;14.52;2.60;;;;;;;24.95;30.65;100247.94;10356970;28;20058;-79
2022/07/18 20:25:41;;;;;;;7.28;2.17;;;;;;;24.84;30.72;100256.34;10335489;28;20050;-79
2022/07/18 20:30:43;;;;;;;9.52;2.13;;;;;;;24.79;30.83;100250.72;10336506;28;20108;-79
2022/07/18 20:35:45;;;;;;;8.02;2.60;;;;;;;24.27;31.37;100253.91;10351779;28;20139;-79
2022/07/18 20:40:47;;;;;;;6.07;2.20;;;;;;;24.26;31.67;100254.06;10336846;28;20107;-82
2022/07/18 20:45:49;;;;;;;7.05;2.20;;;;;;;24.25;31.98;100247.03;10336441;28;20057;-81
2022/07/18 20:50:51;;;;;;;6.78;2.00;;;;;;;24.22;31.88;100258.09;10338583;28;20144;-81
2022/07/18 20:55:53;;;;;;;6.18;2.00;;;;;;;24.06;32.45;100253.56;10336215;28;20046;-81
2022/07/18 21:00:55;;;;;;;6.50;2.20;;;;;;;23.89;32.81;100261.78;10334881;28;20571;-81
2022/07/18 21:05:57;;;;;;;8.20;2.55;;;;;;;23.72;32.84;100263.63;10333928;28;20038;-81
2022/07/18 21:10:59;;;;;;;7.28;3.20;;;;;;;23.56;33.31;100268.13;10333648;28;20061;-81
2022/07/18 21:16:01;;;;;;;7.45;2.55;;;;;;;23.33;33.98;100268.75;10335247;28;20050;-81
2022/07/18 21:21:03;;;;;;;6.13;2.38;;;;;;;23.20;33.94;100271.09;10351489;28;20396;-81
2022/07/18 21:26:05;;;;;;;11.65;2.30;;;;;;;23.18;34.16;100275.75;10332809;28;20507;-81
2022/07/18 21:31:07;;;;;;;7.38;2.38;;;;;;;23.05;34.34;100270.06;10335656;28;20053;-81
2022/07/18 21:36:09;;;;;;;9.60;2.30;;;;;;;23.09;34.48;100273.22;10334561;28;20053;-81
2022/07/18 21:41:10;;;;;;;9.05;2.33;;;;;;;22.33;35.21;100275.88;10331796;28;20050;-81
2022/07/18 21:46:13;;;;;;;9.52;2.53;;;;;;;22.08;36.11;100282.09;10333915;28;21176;-81
2022/07/18 21:51:15;;;;;;;15.20;2.60;;;;;;;21.69;36.80;100278.09;10350364;28;20058;-82
2022/07/18 21:56:16;;;;;;;6.70;2.40;;;;;;;21.67;37.07;100280.06;10334455;28;20050;-81
2022/07/18 22:01:18;;;;;;;4.85;2.20;;;;;;;21.53;37.14;100275.31;10333219;28;20171;-81
2022/07/18 22:06:20;;;;;;;6.35;2.10;;;;;;;21.56;36.90;100283.81;10349982;28;20046;-81
2022/07/18 22:11:29;;;;;;;6.97;2.30;;;;;;;21.59;37.13;100274.69;10335224;28;20089;-81
2022/07/18 22:16:32;;;;;;;;;;;;;;;21.32;37.40;100278.25;10335881;28;20093;-81
2022/07/18 22:21:35;;;;;;;13.70;2.42;;;;;;;21.62;37.24;100279.72;10331940;28;19921;-81
2022/07/18 22:26:37;;;;;;;6.35;2.40;;;;;;;21.41;37.57;100277.38;10335177;28;20519;-81
2022/07/18 22:31:39;;;;;;;8.77;2.40;;;;;;;21.13;38.27;100272.22;10347400;28;20053;-81
2022/07/18 22:36:41;;;;;;;6.28;2.20;;;;;;;21.18;38.05;100272.59;10349549;28;20144;-81
2022/07/18 22:41:42;;;;;;;9.85;2.90;;;;;;;21.10;38.21;100273.34;10333463;28;20108;-81
2022/07/18 22:46:44;;;;;;;8.05;2.50;;;;;;;21.07;38.53;100279.81;10331360;28;20591;-81
2022/07/18 22:51:46;;;;;;;8.05;2.50;;;;;;;20.99;38.59;100281.53;10327107;28;20089;-81
2022/07/18 22:56:49;;;;;;;4.95;2.22;;;;;;;20.56;39.24;100282.16;10346323;28;20193;-82
2022/07/18 23:01:51;;;;;;;8.63;2.60;;;;;;;20.46;39.50;100281.34;10329645;28;20066;-82
2022/07/18 23:06:52;;;;;;;6.55;2.38;;;;;;;20.39;40.02;100284.75;10332966;28;20046;-81
2022/07/18 23:11:55;;;;;;;10.55;2.70;;;;;;;20.28;40.38;100283.94;10329486;28;20745;-81
2022/07/18 23:16:56;;;;;;;9.85;2.33;;;;;;;19.93;40.58;100285.59;10332452;28;20054;-81